Time;durP1;ratioP1;P1;durP2;ratioP2;P2;SDS_P1;SDS_P2;PMS_P1;PMS_P2;Temp;Humidity;BMP_temperature;BMP_pressure;BME280_temperature;BME280_humidity;BME280_pressure;Samples;Min_cycle;Max_cycle;Signal;HPM_P1;HPM_P2
2021/08/23 00:01:02;;;;;;;2.03;1.40;;;8.60;99.90;;;;;;4991823;28;20054;-65
2021/08/23 00:03:29;;;;;;;3.00;2.67;;;8.70;99.90;;;;;;4989913;28;20501;-67
2021/08/23 00:05:56;;;;;;;3.90;1.95;;;8.60;99.90;;;;;;4991211;28;20050;-72
2021/08/23 00:08:25;;;;;;;2.35;1.50;;;8.60;99.90;;;;;;4991399;28;20057;-67
2021/08/23 00:10:53;;;;;;;4.03;2.53;;;8.60;99.90;;;;;;4991309;28;20054;-69
2021/08/23 00:13:19;;;;;;;4.35;2.15;;;8.60;99.90;;;;;;4990035;28;20129;-75
2021/08/23 00:15:52;;;;;;;2.13;1.70;;;8.60;99.90;;;;;;4991204;28;20050;-68
2021/08/23 00:18:19;;;;;;;4.28;2.47;;;8.60;99.90;;;;;;4991141;28;20050;-65
2021/08/23 00:20:58;;;;;;;2.67;1.75;;;8.60;99.90;;;;;;4990103;28;20553;-68
2021/08/23 00:23:27;;;;;;;3.92;1.80;;;8.60;99.90;;;;;;4990188;28;20457;-65
2021/08/23 00:26:10;;;;;;;2.55;1.48;;;8.60;99.90;;;;;;4991365;28;20101;-66
2021/08/23 00:28:37;;;;;;;1.83;1.63;;;8.50;99.90;;;;;;4991764;28;20465;-66
2021/08/23 00:31:04;;;;;;;4.05;2.65;;;8.50;99.90;;;;;;4991945;28;20464;-67
2021/08/23 00:33:31;;;;;;;2.25;1.67;;;8.50;99.90;;;;;;4989643;28;20058;-73
2021/08/23 00:35:58;;;;;;;1.98;1.80;;;8.50;99.90;;;;;;4989996;28;20054;-67
2021/08/23 00:38:28;;;;;;;2.10;1.42;;;8.50;99.90;;;;;;4991505;28;20042;-67
2021/08/23 00:40:55;;;;;;;3.63;1.70;;;8.40;99.90;;;;;;4991515;28;20398;-67
2021/08/23 00:43:22;;;;;;;2.63;1.77;;;8.50;99.90;;;;;;4989707;28;20043;-65
2021/08/23 00:45:49;;;;;;;3.30;1.70;;;8.40;99.90;;;;;;4991097;28;20428;-65
2021/08/23 00:48:16;;;;;;;1.88;1.70;;;8.40;99.90;;;;;;4991182;28;20054;-66
2021/08/23 00:50:43;;;;;;;2.08;1.70;;;8.40;99.90;;;;;;4991073;28;20105;-72
2021/08/23 00:53:10;;;;;;;3.10;1.40;;;8.40;99.90;;;;;;4991142;28;20077;-68
2021/08/23 00:55:37;;;;;;;2.30;1.20;;;8.40;99.90;;;;;;4989353;28;20101;-68
2021/08/23 00:58:04;;;;;;;2.92;1.75;;;8.30;99.90;;;;;;4991352;28;20327;-67
2021/08/23 01:00:36;;;;;;;2.90;1.85;;;8.30;99.90;;;;;;4991336;28;20133;-69
2021/08/23 01:03:15;;;;;;;4.43;2.08;;;8.30;99.90;;;;;;5006229;22;20133;-66
2021/08/23 01:05:43;;;;;;;2.65;2.17;;;8.30;99.90;;;;;;5009484;28;20057;-67
2021/08/23 01:08:36;;;;;;;2.65;1.40;;;8.30;99.90;;;;;;5010714;28;20066;-64
2021/08/23 01:11:12;;;;;;;3.42;2.15;;;8.20;99.90;;;;;;5010910;28;20046;-64
2021/08/23 01:13:49;;;;;;;3.03;2.08;;;8.20;99.90;;;;;;4989917;28;20050;-67
2021/08/23 01:16:18;;;;;;;1.73;1.60;;;8.20;99.90;;;;;;4991257;28;20050;-64
2021/08/23 01:18:45;;;;;;;3.60;2.95;;;8.20;99.90;;;;;;4991340;28;20038;-65
2021/08/23 01:21:17;;;;;;;3.97;1.90;;;8.20;99.90;;;;;;4989667;28;20070;-63
2021/08/23 01:23:46;;;;;;;4.47;1.83;;;8.20;99.90;;;;;;4991128;28;20100;-64
2021/08/23 01:26:18;;;;;;;3.22;2.03;;;8.10;99.90;;;;;;4991409;28;20185;-64
2021/08/23 01:29:02;;;;;;;2.67;1.85;;;8.10;99.90;;;;;;4991324;28;20416;-64
2021/08/23 01:31:55;;;;;;;2.17;1.80;;;8.10;99.90;;;;;;4989874;28;20047;-65
2021/08/23 01:34:25;;;;;;;4.43;2.03;;;8.10;99.90;;;;;;4991093;28;20117;-63
2021/08/23 01:36:52;;;;;;;5.28;2.15;;;8.10;99.90;;;;;;4991033;28;20126;-64
2021/08/23 01:39:20;;;;;;;2.10;1.42;;;8.10;99.90;;;;;;4989554;28;20070;-66
2021/08/23 01:41:48;;;;;;;2.35;1.52;;;8.10;99.90;;;;;;4991664;28;20050;-64
2021/08/23 01:44:15;;;;;;;2.47;1.75;;;8.10;99.90;;;;;;4994698;28;20050;-63
2021/08/23 01:46:42;;;;;;;2.40;1.70;;;8.00;99.90;;;;;;4994560;28;20054;-64
2021/08/23 01:49:10;;;;;;;2.83;1.80;;;8.10;99.90;;;;;;4994567;28;20065;-64
2021/08/23 01:51:36;;;;;;;2.85;1.70;;;8.10;99.90;;;;;;4992864;28;20089;-64
2021/08/23 01:54:04;;;;;;;2.72;1.85;;;8.00;99.90;;;;;;4994353;28;20069;-65
2021/08/23 01:56:31;;;;;;;2.05;1.85;;;8.00;99.90;;;;;;4994111;28;20108;-64
2021/08/23 01:59:02;;;;;;;2.22;1.70;;;8.00;99.90;;;;;;4994378;28;20066;-64
2021/08/23 02:01:30;;;;;;;2.58;2.03;;;8.00;99.90;;;;;;4992947;28;20428;-64
2021/08/23 02:03:57;;;;;;;3.17;1.95;;;8.00;99.90;;;;;;4993863;28;20046;-68
2021/08/23 02:06:25;;;;;;;3.55;2.08;;;8.00;99.90;;;;;;4994456;28;20177;-64
2021/08/23 02:08:52;;;;;;;2.75;1.80;;;8.00;99.90;;;;;;4994095;28;20085;-63
2021/08/23 02:11:24;;;;;;;2.92;1.52;;;8.00;99.90;;;;;;4991292;28;20464;-63
2021/08/23 02:13:51;;;;;;;2.95;1.90;;;8.00;99.90;;;;;;4993849;28;20054;-63
2021/08/23 02:16:19;;;;;;;2.70;2.30;;;7.90;99.90;;;;;;4993935;28;20050;-65
2021/08/23 02:18:46;;;;;;;1.60;1.50;;;7.90;99.90;;;;;;4994147;28;20058;-63
2021/08/23 02:21:13;;;;;;;3.33;2.15;;;7.90;99.90;;;;;;4992670;28;20113;-64
2021/08/23 02:23:41;;;;;;;3.20;2.90;;;7.80;99.90;;;;;;4993999;28;20474;-66
2021/08/23 02:26:08;;;;;;;3.70;1.80;;;7.80;99.90;;;;;;4994027;28;20460;-67
2021/08/23 02:28:35;;;;;;;5.63;2.17;;;7.80;99.90;;;;;;4994050;28;20142;-64
2021/08/23 02:31:03;;;;;;;1.92;1.50;;;7.80;99.90;;;;;;4993749;28;20372;-66
2021/08/23 02:33:31;;;;;;;2.28;1.77;;;7.80;99.90;;;;;;4992463;28;20374;-64
2021/08/23 02:35:58;;;;;;;2.80;2.53;;;7.80;99.90;;;;;;4993179;28;20082;-66
2021/08/23 02:38:25;;;;;;;1.92;1.73;;;7.80;99.90;;;;;;4993703;28;20069;-66
2021/08/23 02:40:52;;;;;;;2.25;1.83;;;7.80;99.90;;;;;;4993644;28;20473;-65
2021/08/23 02:43:18;;;;;;;2.10;1.60;;;7.80;99.90;;;;;;4992149;28;20070;-63
2021/08/23 02:45:45;;;;;;;2.35;1.70;;;7.80;99.90;;;;;;4993274;28;20046;-64
2021/08/23 02:48:12;;;;;;;2.10;1.73;;;7.80;99.90;;;;;;4993448;28;20046;-63
2021/08/23 02:50:39;;;;;;;2.58;1.58;;;7.80;99.90;;;;;;4993361;28;20100;-68
2021/08/23 02:53:06;;;;;;;2.38;1.55;;;7.80;99.90;;;;;;4992327;28;20081;-67
2021/08/23 02:55:33;;;;;;;3.08;2.22;;;7.80;99.90;;;;;;4990586;28;20370;-63
2021/08/23 02:58:00;;;;;;;4.50;2.20;;;7.80;99.90;;;;;;4993300;28;20134;-63
2021/08/23 03:00:26;;;;;;;2.10;1.50;;;7.80;99.90;;;;;;4993304;28;20081;-67
2021/08/23 03:02:53;;;;;;;2.70;1.80;;;7.80;99.90;;;;;;4993020;28;20066;-64
2021/08/23 03:05:20;;;;;;;3.08;2.13;;;7.90;99.90;;;;;;4991917;28;20046;-64
2021/08/23 03:07:47;;;;;;;3.10;1.90;;;7.90;99.90;;;;;;4992949;28;20082;-70
2021/08/23 03:10:15;;;;;;;3.10;2.00;;;7.90;99.90;;;;;;4993019;28;20092;-63
2021/08/23 03:12:41;;;;;;;2.85;1.70;;;7.90;99.90;;;;;;4993104;28;20066;-66
2021/08/23 03:15:09;;;;;;;2.67;2.22;;;7.90;99.90;;;;;;4993014;28;20081;-64
2021/08/23 03:17:36;;;;;;;2.72;2.33;;;8.00;99.90;;;;;;4991590;28;20070;-64
2021/08/23 03:20:04;;;;;;;5.13;2.00;;;8.00;99.90;;;;;;4992706;28;20101;-63
2021/08/23 03:22:31;;;;;;;3.97;1.50;;;8.00;99.90;;;;;;4992670;28;20046;-66
2021/08/23 03:24:58;;;;;;;2.70;2.00;;;8.00;99.90;;;;;;4991869;28;20077;-70
2021/08/23 03:27:25;;;;;;;3.05;1.83;;;8.00;99.90;;;;;;4991233;28;20089;-65
2021/08/23 03:29:53;;;;;;;1.77;1.55;;;8.00;99.90;;;;;;4992519;28;20221;-66
2021/08/23 03:32:21;;;;;;;6.78;2.78;;;8.00;99.90;;;;;;4992448;28;20113;-65
2021/08/23 03:34:48;;;;;;;3.90;1.65;;;8.10;99.90;;;;;;4992410;28;20050;-66
2021/08/23 03:37:15;;;;;;;3.92;2.05;;;8.10;99.90;;;;;;4991333;28;20069;-68
2021/08/23 03:39:42;;;;;;;4.47;2.53;;;8.10;99.90;;;;;;4992223;28;20454;-66
2021/08/23 03:42:09;;;;;;;3.00;1.77;;;8.10;99.90;;;;;;4991934;28;20465;-66
2021/08/23 03:44:36;;;;;;;2.00;1.45;;;8.10;99.90;;;;;;4992391;28;20050;-69
2021/08/23 03:47:03;;;;;;;3.13;1.70;;;8.10;99.90;;;;;;4992390;28;20042;-63
2021/08/23 03:49:30;;;;;;;2.08;1.80;;;8.10;99.90;;;;;;4990733;28;20054;-64
2021/08/23 03:51:57;;;;;;;2.53;1.63;;;8.00;99.90;;;;;;4992051;28;20078;-69
2021/08/23 03:54:23;;;;;;;2.38;1.55;;;8.10;99.90;;;;;;4991905;28;20491;-64
2021/08/23 03:56:50;;;;;;;3.97;2.25;;;8.10;99.90;;;;;;4991964;28;20070;-63
2021/08/23 03:59:17;;;;;;;2.97;1.70;;;8.10;99.90;;;;;;4990586;28;20101;-65
2021/08/23 04:01:44;;;;;;;3.50;1.92;;;8.10;99.90;;;;;;4992049;28;20043;-69
2021/08/23 04:04:11;;;;;;;3.88;2.00;;;8.10;99.90;;;;;;4991944;28;20350;-63
2021/08/23 04:06:45;;;;;;;3.35;2.20;;;8.10;99.90;;;;;;4992189;28;20066;-67
2021/08/23 04:09:14;;;;;;;2.95;1.88;;;8.20;99.90;;;;;;4991010;28;20096;-64
2021/08/23 04:11:41;;;;;;;2.75;1.80;;;8.20;99.90;;;;;;4992305;28;20116;-64
2021/08/23 04:14:08;;;;;;;4.43;2.13;;;8.30;99.90;;;;;;4992056;28;20042;-64
2021/08/23 04:16:35;;;;;;;2.95;2.05;;;8.30;99.90;;;;;;4992086;28;20050;-64
2021/08/23 04:19:01;;;;;;;3.55;1.55;;;8.40;99.90;;;;;;4991935;28;20077;-64
2021/08/23 04:21:28;;;;;;;3.97;2.47;;;8.50;99.90;;;;;;4990721;28;20042;-63
2021/08/23 04:23:55;;;;;;;2.42;1.73;;;8.60;99.90;;;;;;4991808;28;20172;-64
2021/08/23 04:26:22;;;;;;;3.97;2.20;;;8.60;99.90;;;;;;4992018;28;20050;-64
2021/08/23 04:28:49;;;;;;;3.33;1.90;;;8.70;99.90;;;;;;4992064;28;20092;-68
2021/08/23 04:31:16;;;;;;;2.33;1.83;;;8.80;99.90;;;;;;4990597;28;20042;-64
2021/08/23 04:33:46;;;;;;;4.07;1.70;;;8.90;99.90;;;;;;4991653;28;20051;-64
2021/08/23 04:36:13;;;;;;;5.97;1.60;;;8.90;99.90;;;;;;4991622;28;20481;-63
2021/08/23 04:38:40;;;;;;;6.78;2.28;;;9.10;99.90;;;;;;4991698;28;20062;-63
2021/08/23 04:41:08;;;;;;;2.35;1.52;;;9.30;99.90;;;;;;4991768;28;20081;-64
2021/08/23 04:43:35;;;;;;;3.53;1.92;;;9.40;99.90;;;;;;4989969;28;20073;-66
2021/08/23 04:46:02;;;;;;;2.35;1.75;;;9.50;99.90;;;;;;4991518;28;20070;-64
2021/08/23 04:48:32;;;;;;;2.40;1.50;;;9.70;99.90;;;;;;4991449;28;20484;-64
2021/08/23 04:50:59;;;;;;;2.20;1.27;;;9.90;99.90;;;;;;4991626;28;20074;-64
2021/08/23 04:53:28;;;;;;;2.25;1.85;;;10.00;99.90;;;;;;4990249;28;20070;-63
2021/08/23 04:55:56;;;;;;;3.63;1.83;;;10.10;99.90;;;;;;4991313;28;20489;-65
2021/08/23 04:58:23;;;;;;;2.08;1.63;;;10.10;99.90;;;;;;4991300;28;20050;-63
2021/08/23 05:00:50;;;;;;;2.40;1.05;;;10.30;99.90;;;;;;4991581;28;20070;-66
2021/08/23 05:03:17;;;;;;;2.38;1.73;;;10.40;99.90;;;;;;4989664;28;20186;-64
2021/08/23 05:05:44;;;;;;;5.05;1.58;;;10.50;99.90;;;;;;4991211;28;20053;-63
2021/08/23 05:08:11;;;;;;;1.35;1.05;;;10.60;99.90;;;;;;4991358;28;20051;-63
2021/08/23 05:10:38;;;;;;;1.23;1.10;;;10.70;99.90;;;;;;4990175;28;20459;-64
2021/08/23 05:13:04;;;;;;;2.60;0.90;;;10.80;99.90;;;;;;4990051;28;20540;-69
2021/08/23 05:15:31;;;;;;;1.67;1.13;;;10.90;99.90;;;;;;5009161;28;20081;-63
2021/08/23 05:17:58;;;;;;;1.35;1.02;;;11.00;99.90;;;;;;5013597;28;20116;-66
2021/08/23 05:20:25;;;;;;;2.22;1.10;;;11.10;99.90;;;;;;5014633;28;20050;-63
2021/08/23 05:22:53;;;;;;;4.65;1.20;;;11.30;99.90;;;;;;5014704;28;20551;-66
2021/08/23 05:25:20;;;;;;;1.48;0.75;;;11.40;99.90;;;;;;5013262;28;20137;-64
2021/08/23 05:27:47;;;;;;;1.23;0.85;;;11.50;99.90;;;;;;5014331;28;20558;-64
2021/08/23 05:30:14;;;;;;;1.80;1.08;;;11.60;99.90;;;;;;5014380;28;20041;-65
2021/08/23 05:32:41;;;;;;;0.75;0.47;;;11.70;99.90;;;;;;5014559;28;20484;-64
2021/08/23 05:35:09;;;;;;;2.85;1.52;;;11.80;99.90;;;;;;5014518;28;20077;-65
2021/08/23 05:37:36;;;;;;;0.80;0.70;;;11.90;99.90;;;;;;5013183;28;20050;-66
2021/08/23 05:40:04;;;;;;;2.85;0.73;;;12.00;99.90;;;;;;5014348;28;20542;-63
2021/08/23 05:42:30;;;;;;;6.82;1.70;;;12.10;99.90;;;;;;5014140;28;20062;-64
2021/08/23 05:44:57;;;;;;;2.88;1.00;;;12.10;99.90;;;;;;5014359;28;20069;-63
2021/08/23 05:47:24;;;;;;;7.95;1.20;;;12.20;99.90;;;;;;5013144;28;20073;-64
2021/08/23 05:49:51;;;;;;;2.03;0.90;;;12.30;99.90;;;;;;5014371;28;20080;-64
2021/08/23 05:52:20;;;;;;;1.02;0.70;;;12.40;99.90;;;;;;5014029;28;20104;-65
2021/08/23 05:54:47;;;;;;;3.92;1.25;;;12.50;99.90;;;;;;5014090;28;20481;-64
2021/08/23 05:57:14;;;;;;;1.08;0.60;;;12.60;99.90;;;;;;5012640;28;20606;-64
2021/08/23 05:59:41;;;;;;;0.63;0.45;;;12.70;99.90;;;;;;5012591;28;20099;-63
2021/08/23 06:02:08;;;;;;;1.27;0.70;;;12.80;99.90;;;;;;5013868;28;20054;-63
2021/08/23 06:04:35;;;;;;;1.75;0.80;;;12.90;99.90;;;;;;5013834;28;20056;-64
2021/08/23 06:07:02;;;;;;;1.63;0.60;;;12.90;99.90;;;;;;5014010;28;20484;-64
2021/08/23 06:09:29;;;;;;;0.40;0.40;;;13.00;99.90;;;;;;5012402;28;20061;-64
2021/08/23 06:11:56;;;;;;;1.25;0.40;;;13.20;99.90;;;;;;5013802;28;20439;-64
2021/08/23 06:14:22;;;;;;;2.67;0.55;;;13.20;99.90;;;;;;5013548;28;20503;-65
2021/08/23 06:16:49;;;;;;;0.68;0.43;;;13.30;99.90;;;;;;5012475;28;20116;-64
2021/08/23 06:19:17;;;;;;;2.55;0.63;;;13.40;99.90;;;;;;5012239;28;20056;-65
2021/08/23 06:21:44;;;;;;;1.13;0.50;;;13.50;99.90;;;;;;5013539;28;20050;-63
2021/08/23 06:24:11;;;;;;;1.50;0.60;;;13.60;99.90;;;;;;5013403;28;20441;-62
2021/08/23 06:26:38;;;;;;;0.82;0.50;;;13.70;99.90;;;;;;5013335;28;20042;-62
2021/08/23 06:29:07;;;;;;;2.63;0.80;;;13.80;99.90;;;;;;5013503;28;20050;-61
2021/08/23 06:31:35;;;;;;;0.57;0.40;;;13.90;99.90;;;;;;5012058;28;20108;-61
2021/08/23 06:34:02;;;;;;;0.75;0.63;;;14.00;99.90;;;;;;5013219;28;20046;-63
2021/08/23 06:36:32;;;;;;;1.23;0.57;;;14.10;99.90;;;;;;5013172;28;20073;-64
2021/08/23 06:38:59;;;;;;;2.97;0.45;;;14.20;99.90;;;;;;5013318;28;20053;-62
2021/08/23 06:41:28;;;;;;;4.03;1.02;;;14.20;99.90;;;;;;5011882;28;20558;-62
2021/08/23 06:43:55;;;;;;;2.55;0.47;;;14.30;99.90;;;;;;5013031;28;20175;-61
2021/08/23 06:46:22;;;;;;;5.57;1.35;;;14.40;99.90;;;;;;5013063;28;20148;-61
2021/08/23 06:48:49;;;;;;;0.70;0.50;;;14.40;99.90;;;;;;5012943;28;20487;-62
2021/08/23 06:51:20;;;;;;;0.68;0.40;;;14.40;99.90;;;;;;5011616;28;20050;-62
2021/08/23 06:53:48;;;;;;;1.52;1.00;;;14.50;99.90;;;;;;5013213;28;20448;-62
2021/08/23 06:56:15;;;;;;;0.75;0.40;;;14.50;99.90;;;;;;5012585;28;20073;-63
2021/08/23 06:58:42;;;;;;;0.43;0.30;;;14.60;99.90;;;;;;5013144;28;20074;-61
2021/08/23 07:01:10;;;;;;;0.50;0.50;;;14.60;99.90;;;;;;5012856;28;20525;-65
2021/08/23 07:03:37;;;;;;;1.13;0.38;;;14.70;99.90;;;;;;4991885;28;20453;-62
2021/08/23 07:06:04;;;;;;;0.57;0.50;;;14.70;99.90;;;;;;4993258;28;20050;-61
2021/08/23 07:08:44;;;;;;;0.85;0.47;;;14.70;99.90;;;;;;4993143;28;20065;-62
2021/08/23 07:11:11;;;;;;;1.75;0.40;;;14.80;99.90;;;;;;4992757;28;20447;-64
2021/08/23 07:13:39;;;;;;;0.60;0.40;;;14.90;99.90;;;;;;4992520;28;20489;-61
2021/08/23 07:16:06;;;;;;;1.30;0.55;;;14.90;99.90;;;;;;4992602;28;20101;-65
2021/08/23 07:18:34;;;;;;;2.17;0.50;;;14.90;99.90;;;;;;4993227;28;20073;-64
2021/08/23 07:21:02;;;;;;;0.85;0.70;;;14.90;99.90;;;;;;4992974;28;20050;-62
2021/08/23 07:23:29;;;;;;;0.38;0.30;;;15.00;99.90;;;;;;4991745;28;20477;-62
2021/08/23 07:25:56;;;;;;;2.53;0.40;;;15.00;99.90;;;;;;4992425;28;20528;-66
2021/08/23 07:28:25;;;;;;;0.22;0.20;;;15.10;99.90;;;;;;4992570;28;20137;-62
2021/08/23 07:30:53;;;;;;;0.70;0.30;;;15.20;99.90;;;;;;4992825;28;20400;-64
2021/08/23 07:33:20;;;;;;;3.30;0.90;;;15.20;99.90;;;;;;4991315;28;20050;-63
2021/08/23 07:35:47;;;;;;;0.52;0.40;;;15.30;99.90;;;;;;4992511;28;20074;-64
2021/08/23 07:38:14;;;;;;;0.30;0.30;;;15.40;99.90;;;;;;4992265;28;20082;-63
2021/08/23 07:40:41;;;;;;;1.45;0.65;;;15.40;99.90;;;;;;4992281;28;20122;-62
2021/08/23 07:43:08;;;;;;;1.08;0.60;;;15.40;99.90;;;;;;4992524;28;20468;-61
2021/08/23 07:45:35;;;;;;;1.00;0.40;;;15.50;99.90;;;;;;4991303;28;20416;-62
2021/08/23 07:48:02;;;;;;;0.40;0.30;;;15.50;99.90;;;;;;4991988;28;20058;-62
2021/08/23 07:50:29;;;;;;;0.82;0.50;;;15.50;99.90;;;;;;4992193;28;20057;-63
2021/08/23 07:52:56;;;;;;;0.52;0.47;;;15.50;99.90;;;;;;4992443;28;20050;-65
2021/08/23 07:55:24;;;;;;;2.05;0.30;;;15.50;99.90;;;;;;4990942;28;20046;-62
2021/08/23 07:57:51;;;;;;;1.75;0.40;;;15.60;99.90;;;;;;4992041;28;20101;-63
2021/08/23 08:00:20;;;;;;;1.65;0.30;;;15.60;99.90;;;;;;4992104;28;20062;-63
2021/08/23 08:02:47;;;;;;;1.05;0.40;;;15.70;99.90;;;;;;4991927;28;20050;-62
2021/08/23 08:05:15;;;;;;;0.63;0.40;;;15.80;99.90;;;;;;4990782;28;20145;-63
2021/08/23 08:07:43;;;;;;;0.88;0.40;;;15.80;99.90;;;;;;4992061;28;20369;-62
2021/08/23 08:10:11;;;;;;;1.02;0.60;;;15.80;99.90;;;;;;4992049;28;20452;-63
2021/08/23 08:12:39;;;;;;;2.55;1.30;;;15.80;99.90;;;;;;4991960;28;20504;-66
2021/08/23 08:15:08;;;;;;;0.60;0.60;;;15.90;99.90;;;;;;4992011;28;20560;-62
2021/08/23 08:17:35;;;;;;;1.60;0.50;;;15.90;99.90;;;;;;4990895;28;20050;-64
2021/08/23 08:20:04;;;;;;;0.38;0.38;;;15.90;99.90;;;;;;4991777;28;20038;-67
2021/08/23 08:22:31;;;;;;;1.38;0.40;;;16.00;99.90;;;;;;4991853;28;20046;-62
2021/08/23 08:24:58;;;;;;;0.60;0.22;;;16.00;99.90;;;;;;4991870;28;20057;-63
2021/08/23 08:27:25;;;;;;;0.40;0.32;;;16.10;99.90;;;;;;4990326;28;20073;-66
2021/08/23 08:29:51;;;;;;;0.32;0.32;;;16.10;99.90;;;;;;4991605;28;20050;-62
2021/08/23 08:32:20;;;;;;;0.30;0.25;;;16.20;99.90;;;;;;4991783;28;20085;-62
2021/08/23 08:34:46;;;;;;;0.43;0.43;;;16.20;99.90;;;;;;4991697;28;20110;-63
2021/08/23 08:37:13;;;;;;;0.43;0.30;;;16.20;99.90;;;;;;4989790;28;20046;-62
2021/08/23 08:39:41;;;;;;;0.52;0.40;;;16.20;99.90;;;;;;4991950;28;20073;-64
2021/08/23 08:42:08;;;;;;;0.52;0.30;;;16.20;99.90;;;;;;4991566;28;20053;-65
2021/08/23 08:44:36;;;;;;;0.43;0.38;;;16.30;99.90;;;;;;4991850;28;20472;-63
2021/08/23 08:47:04;;;;;;;0.77;0.50;;;16.40;99.90;;;;;;4991636;28;20388;-64
2021/08/23 08:49:37;;;;;;;0.45;0.45;;;16.40;99.90;;;;;;4990396;28;20093;-61
2021/08/23 08:52:05;;;;;;;0.88;0.45;;;16.50;99.90;;;;;;4992830;28;20045;-62
2021/08/23 08:54:32;;;;;;;3.20;1.13;;;16.50;99.90;;;;;;4995527;28;20076;-64
2021/08/23 08:57:03;;;;;;;1.77;0.43;;;16.60;99.90;;;;;;4995568;28;20077;-62
2021/08/23 08:59:31;;;;;;;1.48;1.02;;;16.60;99.90;;;;;;4994280;28;20042;-61
2021/08/23 09:01:58;;;;;;;0.60;0.30;;;16.60;99.90;;;;;;4995558;28;20046;-64
2021/08/23 09:04:35;;;;;;;1.08;0.47;;;16.60;99.90;;;;;;4995336;28;20383;-61
2021/08/23 09:07:07;;;;;;;0.57;0.30;;;16.70;99.90;;;;;;4995581;28;20133;-61
2021/08/23 09:09:35;;;;;;;1.77;0.50;;;16.70;99.90;;;;;;4993922;28;20050;-63
2021/08/23 09:12:05;;;;;;;0.82;0.60;;;16.70;99.90;;;;;;4995184;28;20146;-62
2021/08/23 09:14:36;;;;;;;0.30;0.30;;;16.70;99.90;;;;;;4995507;28;20457;-64
2021/08/23 09:17:05;;;;;;;2.67;0.63;;;16.80;99.90;;;;;;4995207;28;20050;-61
2021/08/23 09:19:36;;;;;;;0.70;0.63;;;16.80;99.90;;;;;;4994207;28;20084;-62
2021/08/23 09:22:18;;;;;;;1.88;0.20;;;16.80;99.90;;;;;;4995083;28;20069;-64
2021/08/23 09:24:45;;;;;;;0.38;0.38;;;16.80;99.90;;;;;;4995130;28;20074;-62
2021/08/23 09:27:15;;;;;;;0.60;0.40;;;16.90;99.90;;;;;;4993926;28;20078;-61
2021/08/23 09:30:01;;;;;;;0.77;0.65;;;16.80;99.90;;;;;;4995205;28;20050;-62
2021/08/23 09:32:46;;;;;;;0.60;0.60;;;16.90;99.90;;;;;;4994827;28;20058;-62
2021/08/23 09:35:12;;;;;;;1.02;0.40;;;16.90;99.90;;;;;;4993324;28;20449;-62
2021/08/23 09:37:48;;;;;;;1.80;0.45;;;16.90;99.90;;;;;;4994477;28;20114;-62
2021/08/23 09:40:18;;;;;;;0.47;0.30;;;16.90;99.90;;;;;;4994653;28;20042;-63
2021/08/23 09:42:56;;;;;;;0.93;0.85;;;17.00;99.90;;;;;;4994661;28;20046;-62
2021/08/23 09:45:23;;;;;;;0.60;0.50;;;17.00;99.90;;;;;;4993603;28;20519;-63
2021/08/23 09:48:05;;;;;;;0.52;0.47;;;17.00;99.90;;;;;;4994666;28;20070;-62
2021/08/23 09:50:41;;;;;;;1.65;0.30;;;17.00;99.90;;;;;;4994868;28;20050;-64
2021/08/23 09:53:17;;;;;;;1.95;0.57;;;17.10;99.90;;;;;;4994934;28;20467;-64
2021/08/23 09:55:46;;;;;;;0.75;0.73;;;17.20;99.90;;;;;;4992775;28;20468;-64
2021/08/23 09:58:14;;;;;;;1.52;0.45;;;17.20;99.90;;;;;;4994406;28;20061;-68
2021/08/23 10:00:43;;;;;;;0.47;0.38;;;17.30;99.90;;;;;;4994380;28;20057;-66
2021/08/23 10:03:16;;;;;;;1.40;0.40;;;17.30;99.90;;;;;;4993701;28;20054;-65
2021/08/23 10:05:50;;;;;;;0.60;0.40;;;17.40;99.90;;;;;;4993388;28;20057;-66
2021/08/23 10:08:22;;;;;;;1.25;0.57;;;17.40;99.90;;;;;;4994345;28;20108;-70
2021/08/23 10:10:50;;;;;;;0.82;0.30;;;17.50;99.90;;;;;;4993997;28;20055;-62
2021/08/23 10:13:17;;;;;;;0.63;0.55;;;17.30;99.90;;;;;;4992759;28;20133;-62
2021/08/23 10:15:45;;;;;;;0.20;0.20;;;17.20;99.90;;;;;;4993515;28;20054;-62
2021/08/23 10:18:14;;;;;;;4.25;0.32;;;17.30;99.90;;;;;;4993730;28;20062;-67
2021/08/23 10:20:41;;;;;;;0.70;0.40;;;17.40;99.90;;;;;;4993940;28;20050;-68
2021/08/23 10:23:09;;;;;;;0.68;0.55;;;17.50;99.90;;;;;;4993917;28;20069;-64
2021/08/23 10:25:36;;;;;;;1.88;0.30;;;17.60;99.90;;;;;;4992334;28;20077;-66
2021/08/23 10:28:09;;;;;;;2.22;1.42;;;17.60;99.90;;;;;;4993627;28;20046;-64
2021/08/23 10:30:37;;;;;;;0.45;0.43;;;17.50;99.90;;;;;;4994176;28;20102;-66
2021/08/23 10:33:16;;;;;;;0.80;0.80;;;17.50;99.90;;;;;;4993806;28;20078;-64
2021/08/23 10:35:53;;;;;;;0.55;0.22;;;17.50;99.90;;;;;;4992284;28;20050;-69
2021/08/23 10:38:23;;;;;;;0.60;0.35;;;17.70;99.90;;;;;;4993681;28;20117;-64
2021/08/23 10:41:04;;;;;;;;;;;17.70;99.90;;;;;;4993592;28;20046;-68
2021/08/23 10:43:45;;;;;;;2.50;0.50;;;17.80;99.90;;;;;;4992162;28;19922;-65
2021/08/23 10:46:25;;;;;;;1.08;0.30;;;17.70;99.90;;;;;;4993249;28;20050;-63
2021/08/23 10:48:52;;;;;;;;;;;17.70;99.90;;;;;;4993820;28;20046;-62
2021/08/23 10:51:37;;;;;;;0.82;0.50;;;17.70;99.90;;;;;;4991912;28;20423;-63
2021/08/23 10:54:25;;;;;;;0.52;0.40;;;17.80;99.90;;;;;;4993198;28;20102;-65
2021/08/23 10:56:59;;;;;;;0.73;0.28;;;17.90;99.90;;;;;;4993289;28;20050;-64
2021/08/23 10:59:45;;;;;;;0.65;0.45;;;17.80;99.90;;;;;;4991739;28;20042;-62
2021/08/23 11:02:33;;;;;;;0.50;0.40;;;17.80;99.90;;;;;;4993010;28;20051;-64
2021/08/23 11:05:07;;;;;;;0.50;0.30;;;17.90;99.90;;;;;;4992968;28;20050;-62
2021/08/23 11:07:35;;;;;;;0.70;0.63;;;17.90;99.90;;;;;;4991655;28;20046;-63
2021/08/23 11:10:17;;;;;;;0.40;0.22;;;17.90;99.90;;;;;;4992800;28;20066;-62
2021/08/23 11:12:46;;;;;;;2.40;0.50;;;17.80;99.90;;;;;;4992975;28;20097;-63
2021/08/23 11:15:20;;;;;;;0.25;0.20;;;17.90;99.90;;;;;;4990786;28;20053;-63
2021/08/23 11:18:01;;;;;;;0.88;0.45;;;18.00;99.90;;;;;;4992664;28;20382;-62
2021/08/23 11:20:31;;;;;;;1.00;0.32;;;18.10;99.90;;;;;;4993079;28;20050;-63
2021/08/23 11:23:03;;;;;;;0.93;0.20;;;18.00;99.90;;;;;;4993200;28;20066;-64
2021/08/23 11:25:41;;;;;;;0.47;0.20;;;17.80;99.90;;;;;;4991664;28;20046;-62
2021/08/23 11:28:11;;;;;;;0.95;0.40;;;17.70;99.90;;;;;;4992880;28;20050;-63
2021/08/23 11:30:49;;;;;;;0.75;0.65;;;17.70;99.90;;;;;;4992905;28;20066;-66
2021/08/23 11:33:31;;;;;;;0.80;0.50;;;17.90;99.90;;;;;;4991307;28;20096;-62
2021/08/23 11:36:06;;;;;;;2.63;0.52;;;17.90;99.90;;;;;;4992788;28;20503;-62
2021/08/23 11:38:38;;;;;;;1.10;0.57;;;18.10;99.90;;;;;;4992628;28;20046;-63
2021/08/23 11:41:05;;;;;;;1.23;0.20;;;18.10;99.90;;;;;;4992681;28;20503;-62
2021/08/23 11:43:34;;;;;;;2.05;0.63;;;18.00;99.90;;;;;;4991289;28;20119;-64
2021/08/23 11:46:03;;;;;;;0.55;0.55;;;17.80;99.90;;;;;;4992394;28;20046;-62
2021/08/23 11:48:30;;;;;;;0.88;0.15;;;17.80;99.90;;;;;;4992371;28;20046;-64
2021/08/23 11:50:58;;;;;;;0.65;0.52;;;17.80;99.90;;;;;;4992871;28;20073;-65
2021/08/23 11:53:29;;;;;;;0.93;0.55;;;18.00;99.90;;;;;;4991020;28;20400;-64
2021/08/23 11:56:08;;;;;;;1.17;0.47;;;18.10;99.90;;;;;;4992173;28;20078;-64
2021/08/23 11:58:40;;;;;;;2.15;0.60;;;17.90;99.90;;;;;;4992315;28;20066;-63
2021/08/23 12:01:14;;;;;;;0.60;0.45;;;18.00;99.90;;;;;;4992578;28;20069;-61
2021/08/23 12:03:42;;;;;;;1.17;0.80;;;18.00;99.90;;;;;;4990773;28;20437;-62
2021/08/23 12:06:11;;;;;;;0.60;0.40;;;18.20;99.90;;;;;;4992118;28;20459;-63
2021/08/23 12:08:40;;;;;;;0.40;0.40;;;18.30;99.90;;;;;;4992137;28;20096;-63
2021/08/23 12:11:08;;;;;;;0.65;0.32;;;18.20;99.90;;;;;;4991991;28;20054;-62
2021/08/23 12:13:44;;;;;;;0.50;0.40;;;18.10;99.90;;;;;;4990494;28;20373;-64
2021/08/23 12:16:20;;;;;;;0.30;0.20;;;18.10;99.90;;;;;;4991825;28;20092;-61
2021/08/23 12:18:51;;;;;;;1.02;0.60;;;18.20;99.90;;;;;;4992020;28;20038;-62
2021/08/23 12:21:26;;;;;;;0.40;0.30;;;18.00;99.90;;;;;;4990286;28;20101;-63
2021/08/23 12:24:08;;;;;;;1.85;0.30;;;18.00;99.90;;;;;;4991695;28;20377;-66
2021/08/23 12:26:53;;;;;;;0.60;0.60;;;17.90;99.90;;;;;;4991763;28;20449;-62
2021/08/23 12:29:27;;;;;;;0.28;0.15;;;17.80;99.90;;;;;;4990673;28;20054;-62
2021/08/23 12:31:57;;;;;;;1.08;0.35;;;17.90;99.90;;;;;;4991713;28;20054;-62
2021/08/23 12:34:29;;;;;;;0.65;0.40;;;18.00;99.90;;;;;;4991966;28;20464;-64
2021/08/23 12:37:01;;;;;;;0.98;0.43;;;17.80;99.90;;;;;;4991767;28;20042;-62
2021/08/23 12:39:28;;;;;;;1.05;0.95;;;17.70;99.90;;;;;;4990341;28;20477;-64
2021/08/23 12:41:59;;;;;;;1.25;0.43;;;17.90;99.90;;;;;;4991630;28;20062;-63
2021/08/23 12:44:26;;;;;;;1.17;0.90;;;18.10;99.90;;;;;;4992046;28;20439;-63
2021/08/23 12:46:53;;;;;;;3.40;1.02;;;18.10;99.90;;;;;;4990417;28;20126;-66
2021/08/23 12:49:20;;;;;;;1.27;0.63;;;18.20;99.90;;;;;;4989979;28;20109;-62
2021/08/23 12:51:49;;;;;;;1.10;1.00;;;18.20;99.90;;;;;;4991525;28;20074;-63
2021/08/23 12:54:18;;;;;;;4.00;2.50;;;18.30;99.90;;;;;;4991615;28;20058;-62
2021/08/23 12:56:45;;;;;;;1.20;0.70;;;18.40;99.90;;;;;;4991725;28;20081;-63
2021/08/23 12:59:12;;;;;;;0.95;0.60;;;18.40;99.90;;;;;;4990097;28;20066;-62
2021/08/23 13:01:39;;;;;;;1.75;0.45;;;18.60;99.90;;;;;;4991576;28;20098;-61